4V0 weather

Rangely Airport
Rangely, Colorado, United States

Public forecast

Using degrees Fahrenheit for public forecast. Weather courtesy of forecast.io.

METAR (pilot weather report)

Retrieved UTC (0 seconds ago):

TAF (pilot weather forecast)

Closest forecast is Vernal Regional Airport, 40.1 nm (74.2 km) WNW. Retrieved 2019/09/17 18:42 UTC (0 seconds ago):

TAF KVEL 171739Z 1718/1818 25019G27KT P6SM SKC FM172300 27012G20KT P6SM SKC FM180000 27009KT P6SM SKC FM180200 30004KT P6SM SKC